< < Back
Terminal Aerodrome Forecast


Current Version              Previous Versions:   1  2  3  4  5  6  7  8  9  

Terminal Aerodrome Forecast

394
FTAK31 PAJN 232338
TAFAHN
TAF
PAHN 232338Z 2400/2424 11015G25KT 2SM RA BR BKN008 OVC040
      TEMPO 2400/2404 08010G15KT 6SM -RA SCT008 BKN040 OVC060
     FM240400 13010G20KT 4SM -SHRA BKN015 OVC025
     FM240900 09010KT 6SM -SHRA BR SCT010 BKN015 OVC035
     FM242100 12012KT P6SM -SHRA SCT015 OVC025
      AMD LTD TO CLD VIS AND WIND=



Latest METAR

380
SAUS70 KWBC 240300
MTRAHN
METAR KAHN 240251Z AUTO 00000KT 10SM CLR 24/23 A3003 RMK AO2 SLP159
T02440233 53009


USA.gov is the U.S. government's official web portal to all federal, state and local government web resources and services.